Terminal Aerodrome Forecast
Issued by NWS Central Illinois

Home | Current Version | Previous Version | Text Only | Print | Product List | Glossary On
Versions: 1 2 3 4 5 6 7 8 9 10 11 12 13 14 15 16 17 18 19 20 21 22 23
000
FTUS43 KILX 071728
TAFSPI
TAF
KSPI 071728Z 0718/0818 36010G18KT 5SM HZ SCT007 OVC012
     FM072100 05008KT P6SM BKN035
     FM080900 05004KT 3SM -SHRA BR SCT008 OVC012=

USA.gov is the U.S. government's official web portal to all federal, state and local government web resources and services.